Emmanuel Tomasos — C6SS7 — position and weather

sailwx.info

Track history (hours):
 
Tides and Currents Weather Stations Pressure Air Temp Water Temp Dewpoint Dewpoint Depression Visibility Wind Speed Wind Dir Waves Ship Positions

Emmanuel Tomasos

Last reported at 2016-Dec-10 12:33 UTC. Time now 2016-Dec-11 14:06 UTC.
Position S 03°09' W 059°56'.

Length 182 m; draft 8.7 m.

Type: Tanker. MMSI: 311459000.

Date/timePositionNaut miles runAvg speedWind from/ knotsBaromVisibWave heightAir tempDewpointWater temp
2016-Dec-10 12:33S 03°09' W 059°56'  
2016-Dec-08 00:33S 00°11' W 051°16'8 8.2
2016-Dec-07 23:33S 00°06' W 051°09'4 4.2
2016-Dec-07 22:33S 00°04' W 051°06'5 5.3
2016-Dec-07 21:33S 00°00' W 051°02'3 3.0
2016-Dec-07 20:33N 00°02' W 050°59'0 0.1
2016-Dec-07 19:31N 00°02' W 050°59'0 0.0
2016-Dec-07 18:31N 00°02' W 050°59'0 0.0
2016-Dec-07 17:30N 00°02' W 050°59'0 0.0
2016-Dec-07 16:31N 00°02' W 050°59'0 0.0
2016-Dec-07 15:31N 00°02' W 050°59'0 0.2
2016-Dec-07 14:31N 00°02' W 050°59'7 6.9
2016-Dec-07 13:33N 00°08' W 050°57'1211.4
2016-Dec-07 12:33N 00°11' W 050°46'  
Track history (hours):
 
Tides and Currents Weather Stations Pressure Air Temp Water Temp Dewpoint Dewpoint Depression Visibility Wind Speed Wind Dir Waves Ship Positions

Emmanuel Tomasos

Last reported at 2016-Dec-10 12:33 UTC. Time now 2016-Dec-11 14:06 UTC.
Position S 03°09' W 059°56'.

Length 182 m; draft 8.7 m.

Type: Tanker. MMSI: 311459000.

Date/timePositionNaut miles runAvg speedWind from/ knotsBaromVisibWave heightAir tempDewpointWater temp
2016-Dec-10 12:33S 03°09' W 059°56'  
2016-Dec-08 00:33S 00°11' W 051°16'8 8.2
2016-Dec-07 23:33S 00°06' W 051°09'4 4.2
2016-Dec-07 22:33S 00°04' W 051°06'5 5.3
2016-Dec-07 21:33S 00°00' W 051°02'3 3.0
2016-Dec-07 20:33N 00°02' W 050°59'0 0.1
2016-Dec-07 19:31N 00°02' W 050°59'0 0.0
2016-Dec-07 18:31N 00°02' W 050°59'0 0.0
2016-Dec-07 17:30N 00°02' W 050°59'0 0.0
2016-Dec-07 16:31N 00°02' W 050°59'0 0.0
2016-Dec-07 15:31N 00°02' W 050°59'0 0.2
2016-Dec-07 14:31N 00°02' W 050°59'7 6.9
2016-Dec-07 13:33N 00°08' W 050°57'1211.4
2016-Dec-07 12:33N 00°11' W 050°46'  

Dump ship's entire track history